Flight Track Log - Related Links

Times and Time Zones

All times are in EDT time to prevent confusion due to time zone crossing. See the WWI24 flight status page for this flight to view local times or setup timezone preferences in your user account.

Time Position Orientation Groundspeed Altitude Reporting Facility
EDT Latitude Longitude Course Direction KTS MPH feet Rate Location/Type
Wed 03:38:58 PM 33.9333 -84.2667 53° Northeast 196 226 2,500  Level Atlanta TRACON
Wed 03:39:57 PM 33.9833 -84.2167 40° Northeast 256 295 3,800 1,765 Climbing Atlanta TRACON
Wed 03:40:57 PM 33.9833 -84.1333 90° East 276 318 6,000 1,587 Climbing Atlanta TRACON
Wed 03:41:58 PM 33.9667 -84.0333 101° East 297 342 7,000 728 Climbing Atlanta TRACON
Wed 03:43:50 PM 33.9028 -83.8836 117° Southeast 309 356 8,100 1,326 Climbing Atlanta Center
Wed 03:44:00 PM 34.0596 -83.4815 53° Northeast  Level FlightAware Approximate
Wed 03:44:50 PM 33.8608 -83.7936 119° Southeast 309 356 10,800  Level Atlanta Center
Wed 03:45:50 PM 33.8439 -83.6711 99° East 335 386 13,200 2,600 Climbing Atlanta Center
Wed 03:46:50 PM 33.8475 -83.5436 88° East 354 407 16,000 2,000 Climbing Atlanta Center
Wed 03:47:50 PM 33.8511 -83.4083 88° East 376 433 17,200 1,650 Climbing Atlanta Center
Wed 03:48:50 PM 33.8878 -83.2806 71° East 389 448 19,300 2,000 Climbing Atlanta Center
Wed 03:49:50 PM 33.9561 -83.1722 53° Northeast 390 449 21,200 1,750 Climbing Atlanta Center
Wed 03:50:50 PM 34.0325 -83.0586 51° Northeast 410 472 22,800 1,867 Climbing Atlanta Center
Wed 03:52:50 PM 34.1931 -82.8283 50° Northeast 439 505 26,800 1,967 Climbing Atlanta Center
Wed 03:53:50 PM 34.2692 -82.7142 51° Northeast 439 505 28,700 2,050 Climbing Atlanta Center
Wed 03:54:50 PM 34.3514 -82.5997 49° Northeast 439 505 30,900 2,000 Climbing Atlanta Center
Wed 03:55:50 PM 34.4333 -82.4722 52° Northeast 439 505 32,700 1,900 Climbing Atlanta Center
Wed 03:56:50 PM 34.5131 -82.3547 51° Northeast 434 499 34,700 2,100 Climbing Atlanta Center
Wed 03:57:50 PM 34.5867 -82.2447 51° Northeast 434 499 36,900 1,950 Climbing Atlanta Center
Wed 03:58:50 PM 34.6622 -82.1297 51° Northeast 428 493 38,600 1,600 Climbing Atlanta Center
Wed 03:59:50 PM 34.7397 -82.0167 50° Northeast 428 493 40,100 1,450 Climbing Atlanta Center
Wed 04:00:50 PM 34.8128 -81.9008 52° Northeast 428 493 41,500 1,450 Climbing Atlanta Center
Wed 04:01:50 PM 34.8903 -81.7875 50° Northeast 428 493 43,000 1,200 Climbing Atlanta Center
Wed 04:02:50 PM 34.9653 -81.6714 52° Northeast 428 493 43,900 1,000 Climbing Atlanta Center
Wed 04:03:50 PM 35.0381 -81.5578 52° Northeast 428 493 45,000 550 Climbing Atlanta Center
Wed 04:04:50 PM 35.1128 -81.4439 51° Northeast 428 493 45,000  Level Atlanta Center
Wed 04:05:50 PM 35.1875 -81.3247 52° Northeast 428 493 45,000  Level Atlanta Center
Wed 04:06:50 PM 35.2661 -81.2000 52° Northeast 439 505 45,000  Level Atlanta Center
Wed 04:07:50 PM 35.3386 -81.0856 52° Northeast 453 521 45,000  Level Atlanta Center
Wed 04:08:50 PM 35.4208 -80.9575 52° Northeast 465 535 45,000  Level Atlanta Center
Wed 04:09:50 PM 35.5011 -80.8322 52° Northeast 470 541 45,000  Level Atlanta Center
Wed 04:10:50 PM 35.5814 -80.7089 51° Northeast 470 541 45,000  Level Atlanta Center
Wed 04:11:50 PM 35.6614 -80.5856 51° Northeast 470 541 45,000  Level Atlanta Center
Wed 04:12:50 PM 35.7411 -80.4594 52° Northeast 470 541 45,000  Level Atlanta Center
Wed 04:13:50 PM 35.8208 -80.3331 52° Northeast 465 535 45,000  Level Atlanta Center
Wed 04:14:50 PM 35.8983 -80.2039 53° Northeast 465 535 45,000  Level Atlanta Center
Wed 04:17:13 PM 36.0906 -79.9156 50° Northeast 458 527 45,000  Level Washington Center
Wed 04:18:13 PM 36.1761 -79.7967 48° Northeast 458 527 45,000  Level Washington Center
Wed 04:19:12 PM 36.2639 -79.6700 49° Northeast 482 555 45,000  Level Washington Center
Wed 04:20:14 PM 36.3603 -79.5358 48° Northeast 471 542 45,000  Level Washington Center
Wed 04:21:11 PM 36.4369 -79.4233 50° Northeast 465 535 45,000  Level Washington Center
Wed 04:22:13 PM 36.5222 -79.3008 49° Northeast 465 535 45,000  Level Washington Center
Wed 04:23:13 PM 36.6094 -79.1731 50° Northeast 471 542 45,000  Level Washington Center
Wed 04:24:14 PM 36.6944 -79.0500 49° Northeast 471 542 45,000  Level Washington Center
Wed 04:25:11 PM 36.7794 -78.9242 50° Northeast 471 542 45,000  Level Washington Center
Wed 04:26:12 PM 36.8664 -78.8008 49° Northeast 466 536 45,000  Level Washington Center
Wed 04:27:13 PM 36.9550 -78.6744 49° Northeast 466 536 45,000  Level Washington Center
Wed 04:28:11 PM 37.0397 -78.5503 49° Northeast 466 536 45,000  Level Washington Center
Wed 04:29:12 PM 37.1261 -78.4233 49° Northeast 466 536 45,000  Level Washington Center
Wed 04:30:12 PM 37.2167 -78.3017 47° Northeast 466 536 45,000  Level Washington Center
Wed 04:31:13 PM 37.3169 -78.1956 40° Northeast 466 536 45,000  Level Washington Center
Wed 04:32:11 PM 37.4172 -78.0969 38° Northeast 460 529 45,000  Level Washington Center
Wed 04:33:12 PM 37.5194 -77.9903 40° Northeast 460 529 45,000  Level Washington Center
Wed 04:34:13 PM 37.6236 -77.8833 39° Northeast 465 535 45,000  Level Washington Center
Wed 04:35:14 PM 37.7258 -77.7789 39° Northeast 470 541 45,000  Level Washington Center
Wed 04:36:12 PM 37.8300 -77.6689 40° Northeast 470 541 45,000 -252 Level Washington Center
Wed 04:37:13 PM 37.9339 -77.5611 39° Northeast 475 547 44,500 -1,091 Descending Washington Center
Wed 04:38:13 PM 38.0358 -77.4503 41° Northeast 480 552 42,800 -1,537 Descending Washington Center
Wed 04:39:14 PM 38.1394 -77.3447 39° Northeast 480 552 41,400 -1,322 Descending Washington Center
Wed 04:40:11 PM 38.2411 -77.2386 39° Northeast 473 544 40,200 -1,322 Descending Washington Center
Wed 04:41:12 PM 38.3342 -77.1375 40° Northeast 459 528 38,800 -1,488 Descending Washington Center
Wed 04:42:12 PM 38.4294 -77.0389 39° Northeast 447 514 37,200 -1,686 Descending Washington Center
Wed 04:43:13 PM 38.5286 -76.9344 39° Northeast 447 514 35,400 -1,664 Descending Washington Center
Wed 04:44:11 PM 38.6383 -76.8142 41° Northeast 456 525 33,900 -1,932 Descending Washington Center
Wed 04:45:11 PM 38.7394 -76.7042 40° Northeast 482 555 31,600 -2,066 Descending Washington Center
Wed 04:46:13 PM 38.8406 -76.5883 42° Northeast 487 560 29,700 -1,950 Descending Washington Center
Wed 04:47:11 PM 38.9456 -76.4644 43° Northeast 494 568 27,700 -1,983 Descending Washington Center
Wed 04:48:11 PM 39.0486 -76.3453 42° Northeast 494 568 25,800 -1,785 Descending Washington Center
Wed 04:49:12 PM 39.1431 -76.2339 42° Northeast 479 551 24,100 -885 Descending Washington Center
Wed 04:50:13 PM 39.2436 -76.1250 40° Northeast 471 542 24,000 -1,267 Descending Washington Center
Wed 04:52:12 PM 39.4500 -75.9167 38° Northeast 419 482 20,300 -1,944 Descending Philadelphia TRACON
Wed 04:53:12 PM 39.5500 -75.8333 33° Northeast 419 482 18,200 -2,158 Descending Philadelphia TRACON
Wed 04:54:06 PM 39.6333 -75.7500 38° Northeast 407 468 16,200 -2,087 Descending Philadelphia TRACON
Wed 04:55:07 PM 39.7167 -75.6667 38° Northeast 383 441 14,200 -1,524 Descending Philadelphia TRACON
Wed 04:56:12 PM 39.8167 -75.5833 33° Northeast 373 429 13,000 -632 Descending Philadelphia TRACON
Wed 04:57:01 PM 39.8833 -75.5167 37° Northeast 375 432 13,000  Level Philadelphia TRACON
Wed 04:58:01 PM 39.9667 -75.4500 32° Northeast 375 432 13,000  Level Philadelphia TRACON
Wed 04:59:01 PM 40.0500 -75.3667 37° Northeast 372 428 13,000  Level Philadelphia TRACON
Wed 04:59:55 PM 40.1333 -75.3000 31° Northeast 368 423 13,000 -824 Level Philadelphia TRACON
Wed 05:02:03 PM 40.2833 -75.1500 37° Northeast 307 353 10,500 -1,372 Descending New York TRACON
Wed 05:03:03 PM 40.3333 -75.0833 45° Northeast 300 345 8,700 -1,650 Descending New York TRACON
Wed 05:04:03 PM 40.4000 -75.0167 37° Northeast 287 330 7,200 -1,300 Descending New York TRACON
Wed 05:05:03 PM 40.4333 -74.9333 62° Northeast 282 325 6,100 -1,550 Descending New York TRACON
Wed 05:06:03 PM 40.4667 -74.8333 66° East 295 339 4,100 -1,550 Descending New York TRACON
Wed 05:07:03 PM 40.5000 -74.7333 66° East 271 312 3,000 -550 Descending New York TRACON
Wed 05:08:03 PM 40.5167 -74.6500 75° East 272 313 3,000  Level New York TRACON
Wed 05:09:03 PM 40.5333 -74.5500 78° East 273 314 3,000  Level New York TRACON
Wed 05:10:03 PM 40.5667 -74.4667 62° Northeast 267 307 3,000 -200 Level New York TRACON
Wed 05:11:03 PM 40.6167 -74.4000 45° Northeast 270 311 2,600 -500 Descending New York TRACON
Wed 05:12:03 PM 40.6667 -74.3333 45° Northeast 263 303 2,000 -350 Descending New York TRACON
Wed 05:13:03 PM 40.7167 -74.2667 45° Northeast 235 270 1,900 -250 Descending New York TRACON
Wed 05:14:03 PM 40.7667 -74.2000 45° Northeast 226 260 1,500 -200 Descending New York TRACON
Wed 05:15:03 PM 40.8000 -74.1500 49° Northeast 190 219 1,500 -476 Level New York TRACON
Wed 05:16:09 PM 40.8333 -74.1000 49° Northeast 171 197 500 -909 Descending New York TRACON

Login

Don't have an account? Register now (free) for customized features, flight alerts, and more!